Ana Sayfa
METAR-TAF:

METAR-TAF

Havaalanları :

Birdsville, Avustralya

Enlem: 25-53-51S, Boylam: 139-20-51E, yükseklik: 48 m

Güncel hava durumu gözlemi

Rapor saat 06:00 UTC de 1 saat ve 3 dakika önce yapıldı.
Rüzgar güneydoğudan 9 kt, doğu/güneydoğu ve güney/güneybatı arasında değişken
Sıcaklık 36°C
Nem 7%
Basınç 1010 hPa

METAR: YBDV 140600Z AUTO 14009KT 120V200 //// // ////// 36/M05 Q1010

Saat: 17:03 (07:03 UTC)


TAF: eksik

4.000'den fazla havaalanı için hava durumu gözlemleri ve tahminleri (METAR ve TAF raporları).

Kullanılabilir istasyonlar harita üzerinde sarı ve kırmızı noktalarla gösterilir.

İstasyonun adını görmek için fareyi noktanın üzerinde gezdirin.

Sonrasında hava gözlem ve tahminlerini görmek için tıklayın.

Haritayı değiştirmek için: yaklaştırmak için siyah artı işaretli yeşil düğmeye ve uzaklaştırmak için de eksi işaretli düğmeye hızla tıklayın; bitişik haritalar için yeşil okları kullanın.


METAR-TAF: